createdAt,value
2019-03-24T00:00:27.065Z,1024.53
2019-03-24T00:01:27.048Z,1024.56
2019-03-24T00:02:27.023Z,1024.53
2019-03-24T00:03:26.997Z,1024.53
2019-03-24T00:04:26.974Z,1024.54
2019-03-24T00:05:26.949Z,1024.56
2019-03-24T00:06:26.927Z,1024.52
2019-03-24T00:07:26.906Z,1024.53
2019-03-24T00:08:26.884Z,1024.52
2019-03-24T00:09:26.860Z,1024.50
2019-03-24T00:10:26.844Z,1024.51
2019-03-24T00:11:26.823Z,1024.51
2019-03-24T00:12:26.791Z,1024.51
2019-03-24T00:13:26.770Z,1024.49
2019-03-24T00:14:26.748Z,1024.47
2019-03-24T00:15:26.933Z,1024.51
2019-03-24T00:16:26.707Z,1024.47
2019-03-24T00:17:26.681Z,1024.46
2019-03-24T00:18:26.659Z,1024.46
2019-03-24T00:19:26.645Z,1024.44
2019-03-24T00:20:26.609Z,1024.41
2019-03-24T00:21:26.587Z,1024.43
2019-03-24T00:22:26.574Z,1024.43
2019-03-24T00:23:26.551Z,1024.40
2019-03-24T00:24:26.525Z,1024.36
2019-03-24T00:25:26.496Z,1024.39
2019-03-24T00:26:26.474Z,1024.38
2019-03-24T00:27:26.451Z,1024.38
2019-03-24T00:28:26.433Z,1024.39
2019-03-24T00:29:26.411Z,1024.42
2019-03-24T00:30:26.384Z,1024.41
2019-03-24T00:31:26.367Z,1024.46
2019-03-24T00:32:26.342Z,1024.48
2019-03-24T00:33:26.320Z,1024.50
2019-03-24T00:34:26.288Z,1024.51
2019-03-24T00:35:26.266Z,1024.50
2019-03-24T00:36:26.244Z,1024.54
2019-03-24T00:37:26.223Z,1024.48
2019-03-24T00:38:26.199Z,1024.49
2019-03-24T00:39:26.174Z,1024.52
2019-03-24T00:40:26.164Z,1024.52
2019-03-24T00:41:26.130Z,1024.52
2019-03-24T00:42:26.110Z,1024.47
2019-03-24T00:43:26.086Z,1024.49
2019-03-24T00:44:26.063Z,1024.45
2019-03-24T00:45:36.276Z,1024.49
2019-03-24T00:46:26.016Z,1024.44
2019-03-24T00:47:25.993Z,1024.51
2019-03-24T00:48:25.974Z,1024.55
2019-03-24T00:49:25.949Z,1024.52
2019-03-24T00:50:25.925Z,1024.57
2019-03-24T00:51:25.904Z,1024.51
2019-03-24T00:52:25.876Z,1024.54
2019-03-24T00:53:25.856Z,1024.50
2019-03-24T00:54:25.831Z,1024.47
2019-03-24T00:55:25.814Z,1024.48
2019-03-24T00:56:25.786Z,1024.45
2019-03-24T00:57:25.764Z,1024.44
2019-03-24T00:58:25.740Z,1024.42
2019-03-24T00:59:25.722Z,1024.45
2019-03-24T01:00:25.709Z,1024.39
2019-03-24T01:01:25.672Z,1024.39
2019-03-24T01:02:25.649Z,1024.39
2019-03-24T01:03:25.640Z,1024.38
2019-03-24T01:04:25.603Z,1024.30
2019-03-24T01:05:25.580Z,1024.35
2019-03-24T01:06:25.560Z,1024.34
2019-03-24T01:07:25.535Z,1024.33
2019-03-24T01:08:25.514Z,1024.32
2019-03-24T01:09:25.489Z,1024.35
2019-03-24T01:10:25.465Z,1024.32
2019-03-24T01:11:25.447Z,1024.31
2019-03-24T01:12:25.420Z,1024.31
2019-03-24T01:13:25.407Z,1024.29
2019-03-24T01:14:25.377Z,1024.32
2019-03-24T01:15:25.352Z,1024.29
2019-03-24T01:16:25.332Z,1024.29
2019-03-24T01:17:25.306Z,1024.28
2019-03-24T01:18:25.288Z,1024.29
2019-03-24T01:19:25.274Z,1024.24
2019-03-24T01:20:25.245Z,1024.24
2019-03-24T01:21:25.228Z,1024.23
2019-03-24T01:22:25.193Z,1024.23
2019-03-24T01:23:25.167Z,1024.21
2019-03-24T01:24:25.152Z,1024.22
2019-03-24T01:25:25.125Z,1024.22
2019-03-24T01:26:25.098Z,1024.22
2019-03-24T01:27:25.074Z,1024.21
2019-03-24T01:28:25.055Z,1024.21
2019-03-24T01:29:25.030Z,1024.19
2019-03-24T01:30:25.008Z,1024.23
2019-03-24T01:31:24.983Z,1024.23
2019-03-24T01:32:24.961Z,1024.22
2019-03-24T01:33:24.938Z,1024.24
2019-03-24T01:34:24.915Z,1024.22
2019-03-24T01:35:24.893Z,1024.17
2019-03-24T01:36:24.870Z,1024.18
2019-03-24T01:37:24.849Z,1024.21
2019-03-24T01:38:24.822Z,1024.22
2019-03-24T01:39:24.801Z,1024.19
2019-03-24T01:40:24.778Z,1024.17
2019-03-24T01:41:24.752Z,1024.18
2019-03-24T01:42:24.729Z,1024.16
2019-03-24T01:43:24.707Z,1024.12
2019-03-24T01:44:24.686Z,1024.12
2019-03-24T01:45:24.663Z,1024.13
2019-03-24T01:46:24.637Z,1024.16
2019-03-24T01:47:24.614Z,1024.13
2019-03-24T01:48:24.588Z,1024.15
2019-03-24T01:49:24.575Z,1024.12
2019-03-24T01:50:24.548Z,1024.09
2019-03-24T01:51:24.519Z,1024.11
2019-03-24T01:52:24.497Z,1024.11
2019-03-24T01:53:24.475Z,1024.10
2019-03-24T01:54:24.449Z,1024.08
2019-03-24T01:55:24.426Z,1024.11
2019-03-24T01:56:24.406Z,1024.03
2019-03-24T01:57:24.384Z,1024.06
2019-03-24T01:58:24.363Z,1024.01
2019-03-24T01:59:24.337Z,1024.01
2019-03-24T02:00:24.312Z,1023.97
2019-03-24T02:01:24.290Z,1023.97
2019-03-24T02:02:24.265Z,1023.94
2019-03-24T02:03:24.243Z,1023.95
2019-03-24T02:04:24.219Z,1023.96
2019-03-24T02:05:24.196Z,1023.93
2019-03-24T02:06:24.174Z,1023.91
2019-03-24T02:07:24.150Z,1023.92
2019-03-24T02:08:24.130Z,1023.92
2019-03-24T02:09:24.102Z,1023.92
2019-03-24T02:10:24.080Z,1023.93
2019-03-24T02:11:24.057Z,1023.93
2019-03-24T02:12:24.041Z,1023.92
2019-03-24T02:13:24.009Z,1023.86
2019-03-24T02:14:23.987Z,1023.88
2019-03-24T02:15:23.961Z,1023.86
2019-03-24T02:16:23.940Z,1023.87
2019-03-24T02:17:23.927Z,1023.88
2019-03-24T02:18:23.897Z,1023.87
2019-03-24T02:19:23.868Z,1023.86
2019-03-24T02:20:23.842Z,1023.88
2019-03-24T02:21:23.821Z,1023.88
2019-03-24T02:22:23.807Z,1023.83
2019-03-24T02:23:23.775Z,1023.83
2019-03-24T02:24:23.750Z,1023.84
2019-03-24T02:25:23.729Z,1023.80
2019-03-24T02:26:23.714Z,1023.77
2019-03-24T02:27:23.680Z,1023.78
2019-03-24T02:28:23.658Z,1023.75
2019-03-24T02:29:23.633Z,1023.78
2019-03-24T02:30:23.697Z,1023.77
2019-03-24T02:31:23.590Z,1023.76
2019-03-24T02:32:23.571Z,1023.75
2019-03-24T02:33:23.548Z,1023.73
2019-03-24T02:34:23.516Z,1023.73
2019-03-24T02:35:23.493Z,1023.76
2019-03-24T02:36:23.491Z,1023.73
2019-03-24T02:37:23.457Z,1023.71
2019-03-24T02:38:23.425Z,1023.73
2019-03-24T02:39:23.403Z,1023.77
2019-03-24T02:40:23.379Z,1023.71
2019-03-24T02:41:23.354Z,1023.74
2019-03-24T02:42:23.329Z,1023.75
2019-03-24T02:43:23.313Z,1023.75
2019-03-24T02:44:23.287Z,1023.74
2019-03-24T02:45:23.272Z,1023.76
2019-03-24T02:46:24.956Z,1023.74
2019-03-24T02:47:23.214Z,1023.75
2019-03-24T02:48:23.192Z,1023.75
2019-03-24T02:49:23.171Z,1023.71
2019-03-24T02:50:23.147Z,1023.73
2019-03-24T02:51:23.121Z,1023.74
2019-03-24T02:52:23.096Z,1023.75
2019-03-24T02:53:23.081Z,1023.71
2019-03-24T02:54:23.050Z,1023.69
2019-03-24T02:55:23.025Z,1023.69
2019-03-24T02:56:23.003Z,1023.70
2019-03-24T02:57:22.987Z,1023.70
2019-03-24T02:58:22.953Z,1023.72
2019-03-24T02:59:22.941Z,1023.68
2019-03-24T03:00:22.917Z,1023.64
2019-03-24T03:01:22.893Z,1023.63
2019-03-24T03:02:22.867Z,1023.63
2019-03-24T03:03:22.843Z,1023.59
2019-03-24T03:04:22.816Z,1023.58
2019-03-24T03:05:22.867Z,1023.58
2019-03-24T03:06:22.765Z,1023.61
2019-03-24T03:07:22.745Z,1023.61
2019-03-24T03:08:22.720Z,1023.62
2019-03-24T03:09:22.702Z,1023.66
2019-03-24T03:10:22.671Z,1023.65
2019-03-24T03:11:22.648Z,1023.65
2019-03-24T03:12:22.627Z,1023.59
2019-03-24T03:13:22.602Z,1023.58
2019-03-24T03:14:22.582Z,1023.60
2019-03-24T03:15:22.556Z,1023.60
2019-03-24T03:16:22.534Z,1023.60
2019-03-24T03:17:22.507Z,1023.59
2019-03-24T03:18:22.488Z,1023.57
2019-03-24T03:19:22.464Z,1023.59
2019-03-24T03:20:22.468Z,1023.57
2019-03-24T03:21:22.412Z,1023.56
2019-03-24T03:22:22.387Z,1023.53
2019-03-24T03:23:22.370Z,1023.59
2019-03-24T03:24:22.367Z,1023.57
2019-03-24T03:25:22.326Z,1023.59
2019-03-24T03:26:22.293Z,1023.55
2019-03-24T03:27:22.271Z,1023.54
2019-03-24T03:28:22.247Z,1023.51
2019-03-24T03:29:22.227Z,1023.55
2019-03-24T03:30:22.220Z,1023.52
2019-03-24T03:31:22.178Z,1023.50
2019-03-24T03:32:22.161Z,1023.51
2019-03-24T03:33:22.132Z,1023.49
2019-03-24T03:34:22.104Z,1023.52
2019-03-24T03:35:22.091Z,1023.51
2019-03-24T03:36:22.073Z,1023.47
2019-03-24T03:37:22.034Z,1023.52
2019-03-24T03:38:22.038Z,1023.51
2019-03-24T03:39:21.991Z,1023.48
2019-03-24T03:40:21.981Z,1023.51
2019-03-24T03:41:21.942Z,1023.46
2019-03-24T03:42:21.925Z,1023.46
2019-03-24T03:43:21.901Z,1023.36
2019-03-24T03:44:21.871Z,1023.39
2019-03-24T03:45:21.848Z,1023.35
2019-03-24T03:46:21.822Z,1023.40
2019-03-24T03:47:21.802Z,1023.38
2019-03-24T03:48:21.775Z,1023.37
2019-03-24T03:49:21.756Z,1023.38
2019-03-24T03:50:21.729Z,1023.36
2019-03-24T03:51:21.709Z,1023.33
2019-03-24T03:52:21.684Z,1023.31
2019-03-24T03:53:21.667Z,1023.37
2019-03-24T03:54:21.637Z,1023.32
2019-03-24T03:55:21.610Z,1023.34
2019-03-24T03:56:21.587Z,1023.34
2019-03-24T03:57:21.562Z,1023.34
2019-03-24T03:58:21.539Z,1023.33
2019-03-24T03:59:21.522Z,1023.28
2019-03-24T04:00:21.495Z,1023.32
2019-03-24T04:01:21.475Z,1023.33
2019-03-24T04:02:21.442Z,1023.32
2019-03-24T04:03:21.431Z,1023.32
2019-03-24T04:04:21.398Z,1023.30
2019-03-24T04:05:21.377Z,1023.23
2019-03-24T04:06:21.350Z,1023.21
2019-03-24T04:07:21.325Z,1023.21
2019-03-24T04:08:21.309Z,1023.24
2019-03-24T04:09:21.279Z,1023.19
2019-03-24T04:10:21.265Z,1023.19
2019-03-24T04:11:21.230Z,1023.20
2019-03-24T04:12:21.208Z,1023.22
2019-03-24T04:13:21.188Z,1023.24
2019-03-24T04:14:21.167Z,1023.19
2019-03-24T04:15:21.137Z,1023.20
2019-03-24T04:16:21.118Z,1023.19
2019-03-24T04:17:21.088Z,1023.18
2019-03-24T04:18:21.065Z,1023.20
2019-03-24T04:19:21.043Z,1023.16
2019-03-24T04:20:21.040Z,1023.12
2019-03-24T04:21:20.994Z,1023.14
2019-03-24T04:22:20.971Z,1023.14
2019-03-24T04:23:20.951Z,1023.11
2019-03-24T04:24:20.929Z,1023.11
2019-03-24T04:25:20.901Z,1023.11
2019-03-24T04:26:20.875Z,1023.16
2019-03-24T04:27:20.852Z,1023.12
2019-03-24T04:28:20.829Z,1023.13
2019-03-24T04:29:20.806Z,1023.13
2019-03-24T04:30:20.789Z,1023.17
2019-03-24T04:31:20.761Z,1023.16
2019-03-24T04:32:20.736Z,1023.17
2019-03-24T04:33:20.718Z,1023.14
2019-03-24T04:34:20.689Z,1023.15
2019-03-24T04:35:20.666Z,1023.19
2019-03-24T04:36:20.639Z,1023.15
2019-03-24T04:37:20.624Z,1023.19
2019-03-24T04:38:20.642Z,1023.21
2019-03-24T04:39:20.565Z,1023.19
2019-03-24T04:40:20.547Z,1023.22
2019-03-24T04:41:20.521Z,1023.18
2019-03-24T04:42:20.495Z,1023.20
2019-03-24T04:43:20.472Z,1023.18
2019-03-24T04:44:20.458Z,1023.19
2019-03-24T04:45:20.424Z,1023.20
2019-03-24T04:46:20.403Z,1023.24
2019-03-24T04:47:20.378Z,1023.23
2019-03-24T04:48:20.366Z,1023.23
2019-03-24T04:49:20.329Z,1023.21
2019-03-24T04:50:20.304Z,1023.19
2019-03-24T04:51:20.293Z,1023.20
2019-03-24T04:52:20.258Z,1023.17
2019-03-24T04:53:20.886Z,1023.16
2019-03-24T04:54:20.218Z,1023.18
2019-03-24T04:55:20.188Z,1023.17
2019-03-24T04:56:20.162Z,1023.19
2019-03-24T04:57:20.138Z,1023.20
2019-03-24T04:58:20.114Z,1023.21
2019-03-24T04:59:20.105Z,1023.17
2019-03-24T05:00:20.067Z,1023.17
2019-03-24T05:01:20.050Z,1023.15
2019-03-24T05:02:20.028Z,1023.16
2019-03-24T05:03:20.000Z,1023.14
2019-03-24T05:04:19.980Z,1023.08
2019-03-24T05:05:19.966Z,1023.11
2019-03-24T05:06:19.925Z,1023.09
2019-03-24T05:07:19.903Z,1023.12
2019-03-24T05:08:19.878Z,1023.10
2019-03-24T05:09:19.854Z,1023.11
2019-03-24T05:10:19.832Z,1023.10
2019-03-24T05:11:19.816Z,1023.08
2019-03-24T05:12:19.783Z,1023.08
2019-03-24T05:13:19.758Z,1023.09
2019-03-24T05:14:19.733Z,1023.07
2019-03-24T05:15:19.710Z,1023.06
2019-03-24T05:16:19.685Z,1023.05
2019-03-24T05:17:27.012Z,1023.05
2019-03-24T05:18:19.643Z,1023.10
2019-03-24T05:19:19.615Z,1023.12
2019-03-24T05:20:19.591Z,1023.12
2019-03-24T05:21:19.569Z,1023.12
2019-03-24T05:22:19.545Z,1023.15
2019-03-24T05:23:19.520Z,1023.15
2019-03-24T05:24:19.501Z,1023.20
2019-03-24T05:25:19.475Z,1023.14
2019-03-24T05:26:19.450Z,1023.17
2019-03-24T05:27:19.424Z,1023.15
2019-03-24T05:28:19.402Z,1023.15
2019-03-24T05:29:19.378Z,1023.14
2019-03-24T05:30:19.352Z,1023.13
2019-03-24T05:31:19.328Z,1023.13
2019-03-24T05:32:19.311Z,1023.13
2019-03-24T05:33:19.280Z,1023.15
2019-03-24T05:34:19.257Z,1023.14
2019-03-24T05:35:19.232Z,1023.18
2019-03-24T05:36:19.210Z,1023.19
2019-03-24T05:37:19.184Z,1023.12
2019-03-24T05:38:19.159Z,1023.09
2019-03-24T05:39:19.136Z,1023.08
2019-03-24T05:40:19.113Z,1023.09
2019-03-24T05:41:19.090Z,1023.08
2019-03-24T05:42:19.066Z,1023.06
2019-03-24T05:43:19.039Z,1023.05
2019-03-24T05:44:19.018Z,1023.07
2019-03-24T05:45:18.996Z,1023.05
2019-03-24T05:46:18.969Z,1023.10
2019-03-24T05:47:18.946Z,1023.05
2019-03-24T05:48:18.919Z,1023.06
2019-03-24T05:49:18.896Z,1023.04
2019-03-24T05:50:18.876Z,1023.05
2019-03-24T05:51:18.849Z,1023.02
2019-03-24T05:52:18.826Z,1023.02
2019-03-24T05:53:18.803Z,1023.01
2019-03-24T05:54:18.831Z,1022.98
2019-03-24T05:55:18.760Z,1022.98
2019-03-24T05:56:18.730Z,1022.95
2019-03-24T05:57:18.705Z,1022.91
2019-03-24T05:58:18.678Z,1022.89
2019-03-24T05:59:18.660Z,1022.88
2019-03-24T06:00:18.632Z,1022.92
2019-03-24T06:01:18.613Z,1022.93
2019-03-24T06:02:18.586Z,1022.96
2019-03-24T06:03:18.562Z,1022.92
2019-03-24T06:04:18.537Z,1022.93
2019-03-24T06:05:18.514Z,1022.89
2019-03-24T06:06:18.497Z,1022.88
2019-03-24T06:07:18.473Z,1022.84
2019-03-24T06:08:18.443Z,1022.80
2019-03-24T06:09:18.418Z,1022.80
2019-03-24T06:10:18.392Z,1022.80
2019-03-24T06:11:18.368Z,1022.79
2019-03-24T06:12:18.344Z,1022.75
2019-03-24T06:13:18.327Z,1022.78
2019-03-24T06:14:18.296Z,1022.72
2019-03-24T06:15:18.272Z,1022.70
2019-03-24T06:16:18.253Z,1022.69
2019-03-24T06:17:18.225Z,1022.71
2019-03-24T06:18:18.199Z,1022.71
2019-03-24T06:19:18.180Z,1022.70
2019-03-24T06:20:18.153Z,1022.71
2019-03-24T06:21:18.135Z,1022.69
2019-03-24T06:22:18.103Z,1022.65
2019-03-24T06:23:18.078Z,1022.70
2019-03-24T06:24:18.055Z,1022.71
2019-03-24T06:25:18.032Z,1022.70
2019-03-24T06:26:18.007Z,1022.70
2019-03-24T06:27:17.984Z,1022.70
2019-03-24T06:28:17.959Z,1022.65
2019-03-24T06:29:17.937Z,1022.66
2019-03-24T06:30:17.910Z,1022.62
2019-03-24T06:31:17.887Z,1022.65
2019-03-24T06:32:17.864Z,1022.63
2019-03-24T06:33:17.840Z,1022.62
2019-03-24T06:34:17.816Z,1022.55
2019-03-24T06:35:17.791Z,1022.58
2019-03-24T06:36:17.768Z,1022.59
2019-03-24T06:37:17.742Z,1022.60
2019-03-24T06:38:17.718Z,1022.53
2019-03-24T06:39:17.692Z,1022.59
2019-03-24T06:40:19.755Z,1022.57
2019-03-24T06:41:17.646Z,1022.55
2019-03-24T06:42:17.624Z,1022.58
2019-03-24T06:43:17.598Z,1022.53
2019-03-24T06:44:17.575Z,1022.56
2019-03-24T06:45:27.706Z,1022.55
2019-03-24T06:46:17.529Z,1022.53
2019-03-24T06:47:17.509Z,1022.52
2019-03-24T06:48:17.478Z,1022.51
2019-03-24T06:49:17.454Z,1022.54
2019-03-24T06:50:17.432Z,1022.54
2019-03-24T06:51:17.409Z,1022.45
2019-03-24T06:52:17.382Z,1022.43
2019-03-24T06:53:17.360Z,1022.41
2019-03-24T06:54:17.335Z,1022.42
2019-03-24T06:55:17.312Z,1022.39
2019-03-24T06:56:17.293Z,1022.39
2019-03-24T06:57:17.261Z,1022.45
2019-03-24T06:58:17.235Z,1022.44
2019-03-24T06:59:17.215Z,1022.42
2019-03-24T07:00:17.189Z,1022.42
2019-03-24T07:01:17.170Z,1022.47
2019-03-24T07:02:17.152Z,1022.43
2019-03-24T07:03:17.122Z,1022.46
2019-03-24T07:04:17.104Z,1022.48
2019-03-24T07:05:17.091Z,1022.50
2019-03-24T07:06:17.047Z,1022.49
2019-03-24T07:07:17.021Z,1022.48
2019-03-24T07:08:17.000Z,1022.47
2019-03-24T07:09:16.974Z,1022.47
2019-03-24T07:10:16.959Z,1022.47
2019-03-24T07:11:16.938Z,1022.47
2019-03-24T07:12:16.901Z,1022.45
2019-03-24T07:13:16.888Z,1022.47
2019-03-24T07:14:16.858Z,1022.46
2019-03-24T07:15:16.845Z,1022.46
2019-03-24T07:16:18.529Z,1022.47
2019-03-24T07:17:17.015Z,1022.46
2019-03-24T07:18:16.759Z,1022.46
2019-03-24T07:19:16.732Z,1022.48
2019-03-24T07:20:16.708Z,1022.51
2019-03-24T07:21:16.686Z,1022.50
2019-03-24T07:22:16.663Z,1022.54
2019-03-24T07:23:16.636Z,1022.53
2019-03-24T07:24:16.614Z,1022.56
2019-03-24T07:25:16.592Z,1022.55
2019-03-24T07:26:16.564Z,1022.55
2019-03-24T07:27:16.543Z,1022.56
2019-03-24T07:28:16.522Z,1022.55
2019-03-24T07:29:16.494Z,1022.52
2019-03-24T07:30:16.473Z,1022.52
2019-03-24T07:31:16.445Z,1022.52
2019-03-24T07:32:16.425Z,1022.54
2019-03-24T07:33:16.402Z,1022.53
2019-03-24T07:34:16.375Z,1022.53
2019-03-24T07:35:18.289Z,1022.52
2019-03-24T07:36:16.326Z,1022.49
2019-03-24T07:37:16.301Z,1022.49
2019-03-24T07:38:16.287Z,1022.45
2019-03-24T07:39:16.268Z,1022.50
2019-03-24T07:40:16.230Z,1022.48
2019-03-24T07:41:16.213Z,1022.53
2019-03-24T07:42:16.182Z,1022.51
2019-03-24T07:43:16.160Z,1022.50
2019-03-24T07:44:16.147Z,1022.52
2019-03-24T07:45:16.119Z,1022.58
2019-03-24T07:46:16.096Z,1022.60
2019-03-24T07:47:16.071Z,1022.62
2019-03-24T07:48:19.345Z,1022.65
2019-03-24T07:49:16.018Z,1022.64
2019-03-24T07:50:15.993Z,1022.63
2019-03-24T07:51:15.974Z,1022.71
2019-03-24T07:52:15.954Z,1022.70
2019-03-24T07:53:15.925Z,1022.76
2019-03-24T07:54:15.895Z,1022.73
2019-03-24T07:55:15.876Z,1022.76
2019-03-24T07:56:15.858Z,1022.75
2019-03-24T07:57:15.827Z,1022.75
2019-03-24T07:58:15.805Z,1022.69
2019-03-24T07:59:15.781Z,1022.69
2019-03-24T08:00:15.759Z,1022.66
2019-03-24T08:01:15.735Z,1022.63
2019-03-24T08:02:15.715Z,1022.68
2019-03-24T08:03:15.683Z,1022.66
2019-03-24T08:04:15.664Z,1022.66
2019-03-24T08:05:15.637Z,1022.73
2019-03-24T08:06:15.618Z,1022.76
2019-03-24T08:07:15.595Z,1022.72
2019-03-24T08:08:15.567Z,1022.72
2019-03-24T08:09:15.549Z,1022.68
2019-03-24T08:10:15.523Z,1022.66
2019-03-24T08:11:15.515Z,1022.68
2019-03-24T08:12:15.470Z,1022.68
2019-03-24T08:13:15.452Z,1022.66
2019-03-24T08:14:15.434Z,1022.72
2019-03-24T08:15:15.399Z,1022.70
2019-03-24T08:16:15.378Z,1022.68
2019-03-24T08:17:15.351Z,1022.66
2019-03-24T08:18:15.328Z,1022.67
2019-03-24T08:19:15.313Z,1022.70
2019-03-24T08:20:15.285Z,1022.76
2019-03-24T08:21:15.258Z,1022.71
2019-03-24T08:22:15.234Z,1022.70
2019-03-24T08:23:15.212Z,1022.71
2019-03-24T08:24:15.187Z,1022.69
2019-03-24T08:25:15.166Z,1022.65
2019-03-24T08:26:15.142Z,1022.63
2019-03-24T08:27:15.118Z,1022.52
2019-03-24T08:28:15.090Z,1022.55
2019-03-24T08:29:15.079Z,1022.51
2019-03-24T08:30:15.041Z,1022.52
2019-03-24T08:31:15.020Z,1022.45
2019-03-24T08:32:14.994Z,1022.47
2019-03-24T08:33:14.973Z,1022.38
2019-03-24T08:34:14.954Z,1022.39
2019-03-24T08:35:14.933Z,1022.32
2019-03-24T08:36:15.748Z,1022.37
2019-03-24T08:37:14.889Z,1022.38
2019-03-24T08:38:14.856Z,1022.38
2019-03-24T08:39:14.834Z,1022.38
2019-03-24T08:40:14.809Z,1022.34
2019-03-24T08:41:14.785Z,1022.35
2019-03-24T08:42:14.764Z,1022.32
2019-03-24T08:43:14.742Z,1022.32
2019-03-24T08:44:14.725Z,1022.33
2019-03-24T08:45:14.701Z,1022.30
2019-03-24T08:46:14.671Z,1022.32
2019-03-24T08:47:14.646Z,1022.35
2019-03-24T08:48:14.623Z,1022.31
2019-03-24T08:49:14.601Z,1022.29
2019-03-24T08:50:14.576Z,1022.29
2019-03-24T08:51:14.556Z,1022.18
2019-03-24T08:52:14.533Z,1022.22
2019-03-24T08:53:14.507Z,1022.22
2019-03-24T08:54:14.488Z,1022.26
2019-03-24T08:55:14.460Z,1022.27
2019-03-24T08:56:14.442Z,1022.26
2019-03-24T08:57:14.416Z,1022.26
2019-03-24T08:58:14.393Z,1022.28
2019-03-24T08:59:14.375Z,1022.27
2019-03-24T09:00:14.346Z,1022.35
2019-03-24T09:01:14.324Z,1022.36
2019-03-24T09:02:14.301Z,1022.35
2019-03-24T09:03:14.276Z,1022.33
2019-03-24T09:04:14.249Z,1022.32
2019-03-24T09:05:14.230Z,1022.33
2019-03-24T09:06:14.203Z,1022.33
2019-03-24T09:07:14.184Z,1022.29
2019-03-24T09:08:14.157Z,1022.27
2019-03-24T09:09:14.135Z,1022.24
2019-03-24T09:10:14.114Z,1022.25
2019-03-24T09:11:14.093Z,1022.20
2019-03-24T09:12:14.069Z,1022.22
2019-03-24T09:13:14.041Z,1022.24
2019-03-24T09:14:14.016Z,1022.25
2019-03-24T09:15:14.010Z,1022.21
2019-03-24T09:16:13.971Z,1022.17
2019-03-24T09:17:13.947Z,1022.15
2019-03-24T09:18:13.929Z,1022.14
2019-03-24T09:19:13.909Z,1022.11
2019-03-24T09:20:13.888Z,1022.11
2019-03-24T09:21:13.859Z,1022.08
2019-03-24T09:22:13.835Z,1022.09
2019-03-24T09:23:13.809Z,1022.09
2019-03-24T09:24:13.791Z,1022.12
2019-03-24T09:25:13.778Z,1022.15
2019-03-24T09:26:13.789Z,1022.12
2019-03-24T09:27:13.726Z,1022.14
2019-03-24T09:28:13.697Z,1022.11
2019-03-24T09:29:13.675Z,1022.10
2019-03-24T09:30:13.649Z,1022.12
2019-03-24T09:31:13.630Z,1022.16
2019-03-24T09:32:13.630Z,1022.12
2019-03-24T09:33:13.582Z,1022.17
2019-03-24T09:34:13.563Z,1022.15
2019-03-24T09:35:13.539Z,1022.17
2019-03-24T09:36:13.513Z,1022.15
2019-03-24T09:37:13.493Z,1022.17
2019-03-24T09:38:13.477Z,1022.17
2019-03-24T09:39:13.454Z,1022.14
2019-03-24T09:40:13.425Z,1022.13
2019-03-24T09:41:13.403Z,1022.11
2019-03-24T09:42:13.387Z,1022.09
2019-03-24T09:43:13.365Z,1022.10
2019-03-24T09:44:13.338Z,1022.05
2019-03-24T09:45:13.312Z,1022.04
2019-03-24T09:46:13.288Z,1022.08
2019-03-24T09:47:13.265Z,1022.07
2019-03-24T09:48:13.244Z,1022.09
2019-03-24T09:49:13.224Z,1022.09
2019-03-24T09:50:13.200Z,1022.05
2019-03-24T09:51:13.185Z,1022.06
2019-03-24T09:52:13.154Z,1022.03
2019-03-24T09:53:13.147Z,1022.02
2019-03-24T09:54:13.121Z,1022.04
2019-03-24T09:55:13.089Z,1022.05
2019-03-24T09:56:13.067Z,1022.05
2019-03-24T09:57:13.042Z,1022.06
2019-03-24T09:58:13.029Z,1022.10
2019-03-24T09:59:12.997Z,1022.15
2019-03-24T10:00:12.981Z,1022.16
2019-03-24T10:01:12.952Z,1022.13
2019-03-24T10:02:12.929Z,1022.20
2019-03-24T10:03:12.907Z,1022.19
2019-03-24T10:04:12.887Z,1022.16
2019-03-24T10:05:12.875Z,1022.19
2019-03-24T10:06:12.838Z,1022.20
2019-03-24T10:07:12.818Z,1022.15
2019-03-24T10:08:12.795Z,1022.06
2019-03-24T10:09:12.780Z,1022.14
2019-03-24T10:10:12.748Z,1022.15
2019-03-24T10:11:12.735Z,1022.11
2019-03-24T10:12:12.719Z,1022.13
2019-03-24T10:13:12.692Z,1022.12
2019-03-24T10:14:12.668Z,1022.09
2019-03-24T10:15:12.641Z,1022.10
2019-03-24T10:16:12.619Z,1022.01
2019-03-24T10:17:12.598Z,1022.03
2019-03-24T10:18:12.576Z,1021.98
2019-03-24T10:19:14.239Z,1021.94
2019-03-24T10:20:12.539Z,1021.93
2019-03-24T10:21:12.510Z,1021.89
2019-03-24T10:22:12.492Z,1021.85
2019-03-24T10:23:12.469Z,1021.82
2019-03-24T10:24:12.440Z,1021.77
2019-03-24T10:25:12.417Z,1021.74
2019-03-24T10:26:12.401Z,1021.73
2019-03-24T10:27:12.378Z,1021.69
2019-03-24T10:28:12.352Z,1021.70
2019-03-24T10:29:12.333Z,1021.69
2019-03-24T10:30:12.306Z,1021.68
2019-03-24T10:31:12.287Z,1021.66
2019-03-24T10:32:12.264Z,1021.64
2019-03-24T10:33:12.244Z,1021.64
2019-03-24T10:34:12.225Z,1021.63
2019-03-24T10:35:12.198Z,1021.63
2019-03-24T10:36:12.177Z,1021.62
2019-03-24T10:37:12.160Z,1021.60
2019-03-24T10:38:12.131Z,1021.57
2019-03-24T10:39:12.108Z,1021.54
2019-03-24T10:40:12.092Z,1021.56
2019-03-24T10:41:12.065Z,1021.56
2019-03-24T10:42:12.048Z,1021.56
2019-03-24T10:43:12.021Z,1021.51
2019-03-24T10:44:12.010Z,1021.53
2019-03-24T10:45:11.979Z,1021.48
2019-03-24T10:46:11.956Z,1021.46
2019-03-24T10:47:11.970Z,1021.43
2019-03-24T10:48:11.911Z,1021.45
2019-03-24T10:49:11.891Z,1021.40
2019-03-24T10:50:14.256Z,1021.40
2019-03-24T10:51:11.845Z,1021.36
2019-03-24T10:52:11.825Z,1021.36
2019-03-24T10:53:11.811Z,1021.32
2019-03-24T10:54:11.781Z,1021.37
2019-03-24T10:55:11.761Z,1021.33
2019-03-24T10:56:11.737Z,1021.34
2019-03-24T10:57:11.724Z,1021.28
2019-03-24T10:58:11.706Z,1021.32
2019-03-24T10:59:11.694Z,1021.33
2019-03-24T11:00:11.655Z,1021.37
2019-03-24T11:01:11.631Z,1021.35
2019-03-24T11:02:11.612Z,1021.36
2019-03-24T11:03:11.591Z,1021.41
2019-03-24T11:04:11.566Z,1021.36
2019-03-24T11:05:11.554Z,1021.31
2019-03-24T11:06:11.529Z,1021.28
2019-03-24T11:07:11.509Z,1021.30
2019-03-24T11:08:11.511Z,1021.29
2019-03-24T11:09:11.464Z,1021.27
2019-03-24T11:10:11.446Z,1021.28
2019-03-24T11:11:11.425Z,1021.32
2019-03-24T11:12:11.401Z,1021.29
2019-03-24T11:13:11.378Z,1021.30
2019-03-24T11:14:11.353Z,1021.27
2019-03-24T11:15:11.336Z,1021.25
2019-03-24T11:16:11.310Z,1021.21
2019-03-24T11:17:11.289Z,1021.25
2019-03-24T11:18:11.271Z,1021.27
2019-03-24T11:19:11.259Z,1021.23
2019-03-24T11:20:11.237Z,1021.23
2019-03-24T11:21:11.207Z,1021.24
2019-03-24T11:22:11.181Z,1021.21
2019-03-24T11:23:11.154Z,1021.27
2019-03-24T11:24:11.142Z,1021.26
2019-03-24T11:25:11.120Z,1021.29
2019-03-24T11:26:11.098Z,1021.34
2019-03-24T11:27:11.069Z,1021.34
2019-03-24T11:28:11.048Z,1021.38
2019-03-24T11:29:11.034Z,1021.39
2019-03-24T11:30:11.005Z,1021.39
2019-03-24T11:31:10.983Z,1021.37
2019-03-24T11:32:10.965Z,1021.35
2019-03-24T11:33:10.940Z,1021.31
2019-03-24T11:34:10.921Z,1021.34
2019-03-24T11:35:10.906Z,1021.33
2019-03-24T11:36:10.882Z,1021.30
2019-03-24T11:37:10.852Z,1021.27
2019-03-24T11:38:10.829Z,1021.28
2019-03-24T11:39:10.808Z,1021.27
2019-03-24T11:40:10.799Z,1021.26
2019-03-24T11:41:10.777Z,1021.28
2019-03-24T11:42:10.743Z,1021.25
2019-03-24T11:43:10.733Z,1021.25
2019-03-24T11:44:10.702Z,1021.25
2019-03-24T11:45:10.679Z,1021.26
2019-03-24T11:46:10.657Z,1021.26
2019-03-24T11:47:10.636Z,1021.23
2019-03-24T11:48:10.613Z,1021.23
2019-03-24T11:49:10.596Z,1021.21
2019-03-24T11:50:10.572Z,1021.20
2019-03-24T11:51:10.548Z,1021.14
2019-03-24T11:52:10.525Z,1021.16
2019-03-24T11:53:10.510Z,1021.16
2019-03-24T11:54:10.482Z,1021.14
2019-03-24T11:55:10.461Z,1021.13
2019-03-24T11:56:10.446Z,1021.12
2019-03-24T11:57:10.417Z,1021.15
2019-03-24T11:58:10.395Z,1021.14
2019-03-24T11:59:10.388Z,1021.17
2019-03-24T12:00:10.356Z,1021.16
2019-03-24T12:01:10.330Z,1021.11
2019-03-24T12:02:10.312Z,1021.07
2019-03-24T12:03:10.286Z,1021.05
2019-03-24T12:04:10.265Z,1021.06
2019-03-24T12:05:10.254Z,1021.03